createdAt,value
2019-05-19T00:00:37.322Z,18.45
2019-05-19T00:03:06.927Z,20.62
2019-05-19T00:05:36.259Z,19.45
2019-05-19T00:08:05.589Z,18.05
2019-05-19T00:10:35.330Z,18.40
2019-05-19T00:13:04.656Z,18.20
2019-05-19T00:15:33.969Z,18.87
2019-05-19T00:18:03.524Z,19.12
2019-05-19T00:20:33.061Z,20.75
2019-05-19T00:23:02.550Z,19.10
2019-05-19T00:25:32.372Z,21.05
2019-05-19T00:28:02.277Z,20.20
2019-05-19T00:30:31.583Z,19.02
2019-05-19T00:33:01.185Z,18.95
2019-05-19T00:35:30.518Z,20.05
2019-05-19T00:37:59.839Z,20.90
2019-05-19T00:40:29.141Z,21.57
2019-05-19T00:42:58.795Z,21.20
2019-05-19T00:45:28.519Z,21.97
2019-05-19T00:47:58.223Z,20.85
2019-05-19T00:50:27.828Z,23.35
2019-05-19T00:52:57.138Z,20.92
2019-05-19T00:55:26.622Z,20.97
2019-05-19T00:57:57.861Z,22.25
2019-05-19T01:00:27.160Z,22.25
2019-05-19T01:02:56.471Z,20.70
2019-05-19T01:05:25.767Z,21.65
2019-05-19T01:07:55.091Z,22.07
2019-05-19T01:10:24.529Z,20.45
2019-05-19T01:12:53.845Z,21.68
2019-05-19T01:15:23.301Z,25.30
2019-05-19T01:17:52.614Z,21.48
2019-05-19T01:20:22.092Z,25.52
2019-05-19T01:22:51.405Z,24.00
2019-05-19T01:25:20.750Z,24.07
2019-05-19T01:28:06.787Z,24.07
2019-05-19T01:30:36.156Z,24.47
2019-05-19T01:33:05.467Z,22.15
2019-05-19T01:35:34.770Z,23.77
2019-05-19T01:38:04.100Z,25.23
2019-05-19T01:40:33.396Z,25.25
2019-05-19T01:43:02.711Z,29.18
2019-05-19T01:45:32.034Z,24.67
2019-05-19T01:48:01.361Z,24.55
2019-05-19T01:50:33.627Z,24.70
2019-05-19T01:53:02.952Z,23.45
2019-05-19T01:55:32.265Z,24.18
2019-05-19T01:58:01.600Z,24.47
2019-05-19T02:00:30.905Z,25.85
2019-05-19T02:03:00.219Z,27.07
2019-05-19T02:05:29.841Z,27.52
2019-05-19T02:07:59.165Z,23.10
2019-05-19T02:10:28.469Z,21.45
2019-05-19T02:12:57.785Z,20.17
2019-05-19T02:15:27.101Z,19.02
2019-05-19T02:17:56.430Z,22.75
2019-05-19T02:20:33.103Z,18.62
2019-05-19T02:22:59.597Z,18.57
2019-05-19T02:25:28.920Z,17.85
2019-05-19T02:27:58.249Z,18.57
2019-05-19T02:30:27.555Z,20.80
2019-05-19T02:32:56.882Z,19.75
2019-05-19T02:35:26.187Z,20.68
2019-05-19T02:37:55.576Z,20.77
2019-05-19T02:40:25.018Z,19.15
2019-05-19T02:42:56.666Z,21.23
2019-05-19T02:45:30.936Z,21.30
2019-05-19T02:48:02.979Z,20.60
2019-05-19T02:50:50.856Z,20.23
2019-05-19T02:53:08.628Z,20.80
2019-05-19T02:55:39.195Z,20.77
2019-05-19T02:58:09.341Z,21.77
2019-05-19T03:00:42.093Z,23.67
2019-05-19T03:03:11.488Z,20.92
2019-05-19T03:05:40.808Z,23.05
2019-05-19T03:08:10.107Z,22.35
2019-05-19T03:10:39.444Z,24.27
2019-05-19T03:13:08.788Z,24.60
2019-05-19T03:15:38.139Z,23.00
2019-05-19T03:18:07.441Z,24.60
2019-05-19T03:20:36.748Z,23.85
2019-05-19T03:23:06.093Z,23.67
2019-05-19T03:25:35.407Z,23.32
2019-05-19T03:28:04.713Z,22.58
2019-05-19T03:30:44.957Z,22.55
2019-05-19T03:33:15.909Z,22.10
2019-05-19T03:35:45.249Z,22.95
2019-05-19T03:38:14.604Z,22.73
2019-05-19T03:40:43.928Z,26.40
2019-05-19T03:43:13.238Z,22.07
2019-05-19T03:45:42.551Z,24.50
2019-05-19T03:48:11.881Z,24.10
2019-05-19T03:50:42.205Z,23.45
2019-05-19T03:53:11.758Z,22.65
2019-05-19T03:55:41.385Z,23.67
2019-05-19T03:58:10.959Z,25.27
2019-05-19T04:00:40.408Z,23.30
2019-05-19T04:03:10.060Z,24.25
2019-05-19T04:05:39.695Z,24.30
2019-05-19T04:08:09.292Z,24.95
2019-05-19T04:10:38.618Z,26.52
2019-05-19T04:13:07.960Z,24.87
2019-05-19T04:15:37.300Z,26.45
2019-05-19T04:18:06.650Z,27.42
2019-05-19T04:20:36.197Z,24.77
2019-05-19T04:23:05.887Z,25.37
2019-05-19T04:25:35.208Z,29.98
2019-05-19T04:28:04.960Z,27.55
2019-05-19T04:30:34.220Z,29.52
2019-05-19T04:33:03.549Z,28.90
2019-05-19T04:35:33.201Z,29.15
2019-05-19T04:38:02.517Z,28.52
2019-05-19T04:40:32.120Z,27.90
2019-05-19T04:43:01.457Z,27.80
2019-05-19T04:45:30.762Z,32.10
2019-05-19T04:48:00.089Z,32.38
2019-05-19T04:50:29.388Z,32.10
2019-05-19T04:52:58.704Z,31.95
2019-05-19T04:55:28.013Z,32.60
2019-05-19T04:57:57.630Z,31.10
2019-05-19T05:00:26.962Z,30.08
2019-05-19T05:02:56.286Z,32.88
2019-05-19T05:05:25.842Z,33.75
2019-05-19T05:07:55.177Z,32.35
2019-05-19T05:10:24.748Z,33.00
2019-05-19T05:12:54.343Z,36.05
2019-05-19T05:15:23.675Z,33.33
2019-05-19T05:17:52.985Z,35.73
2019-05-19T05:20:22.292Z,36.17
2019-05-19T05:22:51.607Z,35.73
2019-05-19T05:25:20.935Z,38.42
2019-05-19T05:27:50.258Z,36.05
2019-05-19T05:30:19.627Z,34.18
2019-05-19T05:32:48.950Z,37.65
2019-05-19T05:35:18.305Z,36.25
2019-05-19T05:37:47.659Z,36.77
2019-05-19T05:40:17.340Z,35.08
2019-05-19T05:42:46.716Z,37.50
2019-05-19T05:45:16.173Z,38.05
2019-05-19T05:47:45.492Z,37.75
2019-05-19T05:50:15.282Z,36.33
2019-05-19T05:52:44.586Z,36.88
2019-05-19T05:55:14.084Z,39.30
2019-05-19T05:57:43.402Z,37.17
2019-05-19T06:00:15.856Z,37.60
2019-05-19T06:02:44.280Z,38.00
2019-05-19T06:05:13.731Z,42.30
2019-05-19T06:07:43.070Z,49.55
2019-05-19T06:10:13.055Z,40.92
2019-05-19T06:12:42.371Z,42.80
2019-05-19T06:15:12.711Z,44.85
2019-05-19T06:17:42.027Z,46.95
2019-05-19T06:20:11.471Z,46.98
2019-05-19T06:22:55.254Z,49.27
2019-05-19T06:25:12.055Z,54.10
2019-05-19T06:27:41.379Z,52.58
2019-05-19T06:30:11.765Z,49.55
2019-05-19T06:32:42.723Z,51.13
2019-05-19T06:35:12.570Z,51.18
2019-05-19T06:37:42.218Z,56.08
2019-05-19T06:40:13.920Z,52.50
2019-05-19T06:42:43.704Z,52.83
2019-05-19T06:45:14.635Z,50.85
2019-05-19T06:47:44.013Z,53.65
2019-05-19T06:50:14.255Z,53.75
2019-05-19T06:52:43.584Z,53.70
2019-05-19T06:55:13.244Z,52.13
2019-05-19T06:57:42.571Z,52.90
2019-05-19T07:00:13.583Z,55.28
2019-05-19T07:02:42.897Z,53.23
2019-05-19T07:05:12.774Z,49.58
2019-05-19T07:07:43.027Z,53.55
2019-05-19T07:10:12.647Z,54.38
2019-05-19T07:12:41.950Z,51.58
2019-05-19T07:15:12.372Z,47.93
2019-05-19T07:17:41.693Z,50.15
2019-05-19T07:20:11.473Z,51.08
2019-05-19T07:22:40.806Z,50.50
2019-05-19T07:25:10.625Z,55.23
2019-05-19T07:27:39.950Z,54.33
2019-05-19T07:30:10.114Z,53.52
2019-05-19T07:32:39.420Z,50.38
2019-05-19T07:35:09.651Z,51.60
2019-05-19T07:37:39.517Z,50.80
2019-05-19T07:40:10.383Z,53.13
2019-05-19T07:42:39.711Z,52.95
2019-05-19T07:45:11.447Z,50.63
2019-05-19T07:47:40.790Z,48.95
2019-05-19T07:50:10.688Z,48.48
2019-05-19T07:52:39.990Z,48.48
2019-05-19T07:55:09.602Z,49.03
2019-05-19T07:57:38.950Z,49.27
2019-05-19T08:00:09.372Z,52.75
2019-05-19T08:02:38.966Z,50.78
2019-05-19T08:05:08.692Z,50.08
2019-05-19T08:07:38.187Z,48.38
2019-05-19T08:10:08.367Z,51.48
2019-05-19T08:12:37.688Z,46.60
2019-05-19T08:15:08.815Z,49.67
2019-05-19T08:17:38.121Z,47.73
2019-05-19T08:20:11.156Z,47.27
2019-05-19T08:22:40.468Z,47.00
2019-05-19T08:25:10.064Z,48.48
2019-05-19T08:27:39.398Z,47.80
2019-05-19T08:30:09.723Z,45.95
2019-05-19T08:32:39.039Z,50.00
2019-05-19T08:35:08.491Z,55.23
2019-05-19T08:37:37.827Z,52.00
2019-05-19T08:40:08.059Z,46.92
2019-05-19T08:42:37.386Z,51.10
2019-05-19T08:45:08.409Z,47.90
2019-05-19T08:47:38.109Z,45.63
2019-05-19T08:50:07.995Z,45.40
2019-05-19T08:52:37.589Z,49.35
2019-05-19T08:55:08.119Z,49.55
2019-05-19T08:57:37.424Z,43.98
2019-05-19T09:00:09.194Z,50.15
2019-05-19T09:02:38.516Z,50.98
2019-05-19T09:05:08.402Z,53.13
2019-05-19T09:07:37.737Z,51.50
2019-05-19T09:10:09.309Z,51.40
2019-05-19T09:12:38.780Z,49.90
2019-05-19T09:15:09.794Z,50.50
2019-05-19T09:17:39.137Z,49.27
2019-05-19T09:20:08.524Z,48.50
2019-05-19T09:22:37.839Z,50.12
2019-05-19T09:25:08.615Z,51.40
2019-05-19T09:27:39.560Z,49.38
2019-05-19T09:30:12.357Z,54.18
2019-05-19T09:32:41.672Z,57.93
2019-05-19T09:35:11.336Z,54.13
2019-05-19T09:37:40.926Z,55.58
2019-05-19T09:40:11.404Z,55.92
2019-05-19T09:42:40.789Z,55.70
2019-05-19T09:45:11.139Z,54.10
2019-05-19T09:47:41.105Z,57.23
2019-05-19T09:50:11.510Z,57.98
2019-05-19T09:52:40.748Z,49.73
2019-05-19T09:55:11.136Z,55.73
2019-05-19T09:57:40.404Z,52.93
2019-05-19T10:00:10.750Z,53.02
2019-05-19T10:02:40.071Z,49.53
2019-05-19T10:05:10.703Z,49.80
2019-05-19T10:07:40.008Z,46.80
2019-05-19T10:10:19.015Z,39.95
2019-05-19T10:12:48.585Z,46.75
2019-05-19T10:15:17.968Z,41.53
2019-05-19T10:17:47.270Z,41.83
2019-05-19T10:20:17.612Z,34.48
2019-05-19T10:22:46.923Z,34.03
2019-05-19T10:25:22.190Z,33.13
2019-05-19T10:27:48.385Z,32.50
2019-05-19T10:30:18.119Z,34.90
2019-05-19T10:32:47.462Z,36.00
2019-05-19T10:35:16.783Z,33.85
2019-05-19T10:37:46.740Z,31.40
2019-05-19T10:40:16.564Z,29.50
2019-05-19T10:42:45.877Z,31.12
2019-05-19T10:45:15.823Z,27.37
2019-05-19T10:47:45.134Z,28.62
2019-05-19T10:50:15.350Z,29.10
2019-05-19T10:52:44.720Z,31.05
2019-05-19T10:55:14.307Z,29.30
2019-05-19T10:57:43.640Z,35.08
2019-05-19T11:00:13.173Z,33.18
2019-05-19T11:02:42.507Z,29.85
2019-05-19T11:05:12.087Z,28.23
2019-05-19T11:07:41.377Z,32.05
2019-05-19T11:10:11.408Z,36.48
2019-05-19T11:12:40.707Z,31.50
2019-05-19T11:15:11.230Z,35.03
2019-05-19T11:17:40.565Z,32.55
2019-05-19T11:20:10.027Z,28.83
2019-05-19T11:23:17.637Z,32.70
2019-05-19T11:25:51.583Z,32.73
2019-05-19T11:28:20.655Z,33.15
2019-05-19T11:30:50.249Z,32.75
2019-05-19T11:33:19.540Z,30.70
2019-05-19T11:35:48.864Z,28.45
2019-05-19T11:38:18.179Z,27.98
2019-05-19T11:40:47.511Z,27.37
2019-05-19T11:43:16.809Z,29.15
2019-05-19T11:45:46.138Z,27.55
2019-05-19T11:48:15.454Z,27.67
2019-05-19T11:50:45.035Z,23.12
2019-05-19T11:53:14.344Z,20.95
2019-05-19T11:55:43.652Z,21.20
2019-05-19T11:58:13.235Z,21.30
2019-05-19T12:00:42.560Z,22.80
2019-05-19T12:03:12.148Z,20.90
2019-05-19T12:05:41.767Z,17.17
2019-05-19T12:08:11.085Z,16.85
2019-05-19T12:10:40.680Z,14.20
2019-05-19T12:13:09.988Z,16.65
2019-05-19T12:15:39.334Z,17.40
2019-05-19T12:18:08.653Z,16.12
2019-05-19T12:20:37.989Z,15.63
2019-05-19T12:23:07.297Z,16.37
2019-05-19T12:25:36.663Z,14.70
2019-05-19T12:28:06.047Z,15.10
2019-05-19T12:30:35.374Z,15.45
2019-05-19T12:33:04.681Z,15.40
2019-05-19T12:35:33.993Z,16.40
2019-05-19T12:38:03.299Z,18.02
2019-05-19T12:40:32.608Z,24.02
2019-05-19T12:43:03.838Z,18.02
2019-05-19T12:45:34.215Z,20.80
2019-05-19T12:48:03.812Z,18.98
2019-05-19T12:50:33.190Z,16.27
2019-05-19T12:53:02.504Z,19.20
2019-05-19T12:55:32.175Z,19.87
2019-05-19T12:58:01.504Z,16.55
2019-05-19T13:00:32.526Z,15.80
2019-05-19T13:03:02.088Z,15.35
2019-05-19T13:05:32.992Z,15.68
2019-05-19T13:08:02.700Z,16.73
2019-05-19T13:10:32.020Z,16.27
2019-05-19T13:13:01.338Z,18.50
2019-05-19T13:15:30.658Z,16.02
2019-05-19T13:18:00.281Z,16.77
2019-05-19T13:20:29.595Z,15.25
2019-05-19T13:22:58.939Z,19.32
2019-05-19T13:25:28.317Z,15.20
2019-05-19T13:27:57.628Z,20.57
2019-05-19T13:30:27.089Z,16.37
2019-05-19T13:32:56.492Z,16.23
2019-05-19T13:35:26.076Z,14.83
2019-05-19T13:37:55.393Z,15.50
2019-05-19T13:40:24.699Z,14.60
2019-05-19T13:42:54.030Z,15.13
2019-05-19T13:45:23.983Z,15.43
2019-05-19T13:47:53.343Z,15.93
2019-05-19T13:50:23.000Z,14.00
2019-05-19T13:52:52.361Z,13.43
2019-05-19T13:55:21.691Z,13.48
2019-05-19T13:57:51.033Z,13.15
2019-05-19T14:00:21.233Z,16.12
2019-05-19T14:02:50.547Z,13.43
2019-05-19T14:05:19.863Z,13.55
2019-05-19T14:07:49.169Z,13.40
2019-05-19T14:10:18.521Z,13.83
2019-05-19T14:12:48.155Z,13.75
2019-05-19T14:15:17.839Z,12.20
2019-05-19T14:17:47.149Z,13.10
2019-05-19T14:20:16.586Z,15.38
2019-05-19T14:22:45.909Z,13.43
2019-05-19T14:25:15.564Z,13.22
2019-05-19T14:27:44.868Z,13.85
2019-05-19T14:30:15.093Z,14.18
2019-05-19T14:32:44.717Z,16.50
2019-05-19T14:35:14.030Z,15.48
2019-05-19T14:37:43.344Z,15.72
2019-05-19T14:40:14.659Z,19.25
2019-05-19T14:42:45.609Z,14.93
2019-05-19T14:45:16.040Z,18.98
2019-05-19T14:47:45.329Z,16.73
2019-05-19T14:50:14.796Z,14.33
2019-05-19T14:52:44.116Z,14.90
2019-05-19T14:55:13.914Z,14.55
2019-05-19T14:57:45.462Z,17.57
2019-05-19T15:00:17.363Z,8.98
2019-05-19T15:02:46.936Z,8.93
2019-05-19T15:05:16.397Z,9.18
2019-05-19T15:07:45.682Z,6.60
2019-05-19T15:10:16.504Z,7.17
2019-05-19T15:12:46.104Z,7.65
2019-05-19T15:15:15.978Z,9.18
2019-05-19T15:17:45.607Z,5.62
2019-05-19T15:20:16.724Z,5.40
2019-05-19T15:22:46.079Z,6.08
2019-05-19T15:25:16.282Z,14.28
2019-05-19T15:27:59.346Z,8.30
2019-05-19T15:30:18.082Z,9.45
2019-05-19T15:32:47.663Z,5.90
2019-05-19T15:35:17.022Z,9.88
2019-05-19T15:37:46.355Z,5.62
2019-05-19T15:40:16.160Z,8.63
2019-05-19T15:42:45.521Z,6.65
2019-05-19T15:45:15.477Z,7.03
2019-05-19T15:47:44.850Z,8.88
2019-05-19T15:50:17.361Z,4.87
2019-05-19T15:52:46.843Z,5.17
2019-05-19T15:55:17.847Z,5.72
2019-05-19T15:57:47.169Z,4.70
2019-05-19T16:00:16.969Z,6.75
2019-05-19T16:02:46.554Z,5.80
2019-05-19T16:05:18.898Z,5.70
2019-05-19T16:07:49.028Z,5.70
2019-05-19T16:10:18.473Z,7.92
2019-05-19T16:12:48.023Z,5.72
2019-05-19T16:15:17.614Z,7.72
2019-05-19T16:17:46.920Z,7.00
2019-05-19T16:20:16.424Z,9.40
2019-05-19T16:22:45.877Z,7.35
2019-05-19T16:25:15.313Z,10.48
2019-05-19T16:27:44.643Z,6.60
2019-05-19T16:30:15.702Z,7.42
2019-05-19T16:32:50.856Z,7.28
2019-05-19T16:35:20.160Z,8.40
2019-05-19T16:37:49.560Z,26.87
2019-05-19T16:40:19.184Z,41.37
2019-05-19T16:43:08.109Z,26.07
2019-05-19T16:45:37.421Z,17.85
2019-05-19T16:48:06.798Z,17.73
2019-05-19T16:50:36.116Z,14.13
2019-05-19T16:53:07.182Z,12.80
2019-05-19T16:55:36.480Z,12.75
2019-05-19T16:58:20.214Z,13.75
2019-05-19T17:00:40.360Z,12.43
2019-05-19T17:03:09.696Z,13.95
2019-05-19T17:05:42.161Z,11.22
2019-05-19T17:08:12.992Z,17.70
2019-05-19T17:10:42.323Z,26.57
2019-05-19T17:13:11.648Z,18.25
2019-05-19T17:15:40.993Z,26.95
2019-05-19T17:18:10.304Z,20.32
2019-05-19T17:20:39.633Z,17.77
2019-05-19T17:23:08.996Z,15.45
2019-05-19T17:25:38.284Z,14.50
2019-05-19T17:28:07.599Z,15.78
2019-05-19T17:30:36.933Z,14.90
2019-05-19T17:33:08.946Z,14.53
2019-05-19T17:35:41.306Z,15.38
2019-05-19T17:38:11.749Z,14.25
2019-05-19T17:40:41.053Z,16.73
2019-05-19T17:43:10.374Z,14.73
2019-05-19T17:45:39.689Z,14.28
2019-05-19T17:48:11.754Z,15.48
2019-05-19T17:50:40.063Z,13.43
2019-05-19T17:53:09.384Z,16.48
2019-05-19T17:55:39.060Z,15.35
2019-05-19T17:58:08.359Z,14.13
2019-05-19T18:00:41.050Z,14.98
2019-05-19T18:03:11.117Z,14.45
2019-05-19T18:05:40.485Z,13.45
2019-05-19T18:08:10.189Z,12.35
2019-05-19T18:10:39.479Z,10.45
2019-05-19T18:13:08.852Z,10.93
2019-05-19T18:15:38.173Z,11.63
2019-05-19T18:18:07.510Z,13.68
2019-05-19T18:20:36.840Z,13.08
2019-05-19T18:23:06.401Z,11.28
2019-05-19T18:25:35.844Z,11.85
2019-05-19T18:28:05.147Z,12.55
2019-05-19T18:30:34.719Z,13.20
2019-05-19T18:33:04.040Z,12.50
2019-05-19T18:35:33.618Z,14.23
2019-05-19T18:38:02.929Z,16.10
2019-05-19T18:40:32.238Z,14.33
2019-05-19T18:43:01.546Z,15.78
2019-05-19T18:45:31.133Z,18.27
2019-05-19T18:48:00.434Z,19.25
2019-05-19T18:50:30.045Z,18.07
2019-05-19T18:53:05.133Z,18.07
2019-05-19T18:55:34.785Z,18.32
2019-05-19T18:58:04.097Z,18.70
2019-05-19T19:00:36.870Z,21.05
2019-05-19T19:03:06.784Z,19.02
2019-05-19T19:05:36.107Z,21.90
2019-05-19T19:08:05.418Z,21.85
2019-05-19T19:10:34.749Z,20.90
2019-05-19T19:13:04.056Z,22.87
2019-05-19T19:15:33.369Z,22.82
2019-05-19T19:18:02.708Z,23.92
2019-05-19T19:20:32.401Z,24.25
2019-05-19T19:23:01.721Z,26.17
2019-05-19T19:25:31.043Z,25.12
2019-05-19T19:28:00.361Z,30.45
2019-05-19T19:30:30.508Z,28.00
2019-05-19T19:32:59.841Z,29.75
2019-05-19T19:35:38.290Z,32.42
2019-05-19T19:38:00.204Z,38.90
2019-05-19T19:40:31.738Z,32.35
2019-05-19T19:43:01.875Z,35.48
2019-05-19T19:45:31.839Z,37.17
2019-05-19T19:48:01.260Z,35.08
2019-05-19T19:50:30.701Z,38.98
2019-05-19T19:53:00.355Z,32.35
2019-05-19T19:55:29.678Z,37.38
2019-05-19T19:57:59.671Z,36.23
2019-05-19T20:00:42.131Z,38.80
2019-05-19T20:03:11.518Z,35.28
2019-05-19T20:05:42.817Z,39.40
2019-05-19T20:08:12.748Z,38.85
2019-05-19T20:10:42.139Z,37.80
2019-05-19T20:13:11.471Z,37.33
2019-05-19T20:15:40.799Z,38.48
2019-05-19T20:18:10.357Z,38.40
2019-05-19T20:20:39.665Z,37.03
2019-05-19T20:23:09.249Z,36.63
2019-05-19T20:25:38.583Z,34.95
2019-05-19T20:28:07.908Z,37.40
2019-05-19T20:30:37.482Z,33.67
2019-05-19T20:33:06.917Z,36.08
2019-05-19T20:35:36.233Z,34.13
2019-05-19T20:38:05.625Z,35.05
2019-05-19T20:40:34.990Z,31.70
2019-05-19T20:43:04.569Z,30.77
2019-05-19T20:45:34.556Z,30.77
2019-05-19T20:48:04.034Z,36.60
2019-05-19T20:50:33.352Z,29.63
2019-05-19T20:53:02.696Z,30.75
2019-05-19T20:55:32.279Z,30.62
2019-05-19T20:58:01.926Z,28.77
2019-05-19T21:00:34.015Z,34.92
2019-05-19T21:03:03.342Z,28.85
2019-05-19T21:05:32.722Z,29.50
2019-05-19T21:08:02.042Z,30.02
2019-05-19T21:10:31.356Z,29.70
2019-05-19T21:13:00.675Z,31.17
2019-05-19T21:15:30.240Z,32.28
2019-05-19T21:17:59.818Z,31.15
2019-05-19T21:20:29.174Z,31.55
2019-05-19T21:22:58.787Z,28.67
2019-05-19T21:25:28.124Z,29.90
2019-05-19T21:27:57.671Z,26.97
2019-05-19T21:30:27.004Z,28.42
2019-05-19T21:32:56.322Z,30.27
2019-05-19T21:35:25.897Z,27.93
2019-05-19T21:37:55.207Z,28.05
2019-05-19T21:40:24.767Z,30.17
2019-05-19T21:42:54.082Z,29.70
2019-05-19T21:45:23.499Z,30.97
2019-05-19T21:47:52.856Z,29.77
2019-05-19T21:50:22.209Z,27.62
2019-05-19T21:52:51.589Z,27.60
2019-05-19T21:55:20.910Z,26.42
2019-05-19T21:57:50.214Z,29.10
2019-05-19T22:00:22.222Z,25.82
2019-05-19T22:02:51.514Z,29.65
2019-05-19T22:05:20.846Z,27.35
2019-05-19T22:07:54.731Z,26.93
2019-05-19T22:10:24.054Z,24.43
2019-05-19T22:12:53.410Z,26.75
2019-05-19T22:15:22.766Z,26.70
2019-05-19T22:17:52.117Z,24.27
2019-05-19T22:20:21.542Z,23.60
2019-05-19T22:22:50.902Z,27.37
2019-05-19T22:25:20.556Z,26.27
2019-05-19T22:27:50.099Z,26.75
2019-05-19T22:30:19.645Z,23.42
2019-05-19T22:32:49.282Z,25.77
2019-05-19T22:35:19.033Z,24.60
2019-05-19T22:37:48.612Z,23.57
2019-05-19T22:40:18.144Z,24.05
2019-05-19T22:42:47.482Z,24.25
2019-05-19T22:45:17.400Z,26.60
2019-05-19T22:47:46.763Z,23.18
2019-05-19T22:50:16.298Z,27.22
2019-05-19T22:52:45.637Z,27.05
2019-05-19T22:55:15.335Z,31.05
2019-05-19T22:57:44.652Z,26.75
2019-05-19T23:00:16.721Z,28.57
2019-05-19T23:02:46.068Z,31.75
2019-05-19T23:05:16.384Z,34.23
2019-05-19T23:07:45.706Z,32.35
2019-05-19T23:10:15.868Z,37.65
2019-05-19T23:12:45.293Z,43.48
2019-05-19T23:15:15.879Z,40.73
2019-05-19T23:17:45.265Z,42.73
2019-05-19T23:20:15.917Z,42.90
2019-05-19T23:22:51.440Z,47.38
2019-05-19T23:25:20.999Z,46.95
2019-05-19T23:27:50.387Z,47.38
2019-05-19T23:30:20.190Z,48.35
2019-05-19T23:32:49.556Z,51.08
2019-05-19T23:35:18.934Z,54.08
2019-05-19T23:37:48.682Z,47.00
2019-05-19T23:40:44.466Z,41.92
2019-05-19T23:45:59.177Z,40.67
2019-05-19T23:48:28.661Z,41.75
2019-05-19T23:50:57.985Z,42.00
2019-05-19T23:53:27.354Z,39.58
2019-05-19T23:55:56.678Z,38.75
2019-05-19T23:58:26.288Z,40.63
